createdAt,value
2022-07-26T16:19:34.937Z,31.41
2022-07-26T16:22:03.060Z,30.99
2022-07-26T16:24:30.155Z,31.58
2022-07-26T16:26:56.725Z,29.91
2022-07-26T16:29:23.477Z,29.33
2022-07-26T16:31:50.318Z,30.54
2022-07-26T16:34:16.844Z,29.88
2022-07-26T16:36:43.399Z,30.58
2022-07-26T16:39:10.360Z,29.84
2022-07-26T16:41:37.162Z,29.89
2022-07-26T16:44:03.902Z,29.23
2022-07-26T16:46:30.620Z,30.34
2022-07-26T16:48:57.238Z,30.79
2022-07-26T16:51:23.740Z,31.40
2022-07-26T16:55:04.345Z,30.83
2022-07-26T16:57:30.876Z,33.82
2022-07-26T16:59:57.464Z,34.88
2022-07-26T17:02:24.172Z,32.20
2022-07-26T17:04:50.769Z,31.63
2022-07-26T17:07:26.133Z,31.62
2022-07-26T17:09:54.440Z,30.90
2022-07-26T17:12:21.597Z,31.44
2022-07-26T17:14:48.184Z,31.38
2022-07-26T17:17:14.876Z,30.78
2022-07-26T17:19:41.485Z,31.62
2022-07-26T17:22:08.108Z,31.43
2022-07-26T17:24:34.732Z,31.69
2022-07-26T17:27:01.563Z,31.46
2022-07-26T17:29:28.230Z,32.06
2022-07-26T17:31:54.994Z,31.91
2022-07-26T17:34:21.612Z,31.74
2022-07-26T17:36:48.258Z,31.66
2022-07-26T17:39:16.235Z,32.03
2022-07-26T17:41:48.988Z,32.58
2022-07-26T17:44:16.108Z,32.35
2022-07-26T17:46:42.887Z,33.23
2022-07-26T17:49:09.933Z,33.65
2022-07-26T17:51:37.539Z,32.96
2022-07-26T17:54:04.230Z,33.17
2022-07-26T17:56:31.283Z,32.44
2022-07-26T17:58:57.976Z,32.57
2022-07-26T18:01:24.742Z,32.63
2022-07-26T18:03:51.377Z,32.10
2022-07-26T18:06:18.589Z,32.52
2022-07-26T18:08:45.212Z,31.59
2022-07-26T18:11:12.788Z,31.39
2022-07-26T18:13:39.638Z,31.84
2022-07-26T18:16:06.538Z,32.24
2022-07-26T18:18:33.258Z,32.43
2022-07-26T18:21:00.010Z,33.64
2022-07-26T18:23:26.837Z,32.47
2022-07-26T18:25:53.871Z,33.30
2022-07-26T18:28:20.655Z,32.72
2022-07-26T18:30:47.295Z,32.76
2022-07-26T18:33:14.449Z,34.07
2022-07-26T18:35:41.364Z,33.96
2022-07-26T18:38:08.050Z,34.95
2022-07-26T18:40:35.087Z,34.65
2022-07-26T18:43:01.807Z,35.37
2022-07-26T18:45:28.395Z,35.31
2022-07-26T18:47:55.045Z,35.13
2022-07-26T18:50:21.656Z,35.78
2022-07-26T18:52:48.947Z,34.78
2022-07-26T18:55:15.582Z,36.28
2022-07-26T18:57:43.146Z,36.67
2022-07-26T19:00:16.945Z,37.39
2022-07-26T19:02:44.484Z,36.96
2022-07-26T19:05:11.330Z,38.15
2022-07-26T19:07:41.139Z,37.91
2022-07-26T19:10:10.094Z,38.32
2022-07-26T19:12:37.366Z,38.25
2022-07-26T19:15:06.343Z,38.27
2022-07-26T19:17:33.795Z,38.67
2022-07-26T19:20:00.520Z,40.34
2022-07-26T19:22:29.080Z,40.40
2022-07-26T19:24:55.579Z,39.60
2022-07-26T19:27:22.205Z,40.08
2022-07-26T19:29:48.884Z,40.07
2022-07-26T19:32:15.465Z,39.62
2022-07-26T19:34:42.048Z,39.99
2022-07-26T19:37:08.586Z,39.42
2022-07-26T19:39:35.285Z,40.35
2022-07-26T19:42:01.906Z,39.36
2022-07-26T19:44:28.509Z,39.40
2022-07-26T19:46:57.783Z,40.11
2022-07-26T19:49:24.779Z,41.51
2022-07-26T19:51:51.405Z,40.42
2022-07-26T19:54:18.033Z,40.77
2022-07-26T19:56:44.555Z,40.77
2022-07-26T19:59:11.519Z,40.30
2022-07-26T20:01:38.554Z,40.90
2022-07-26T20:04:05.317Z,40.72
2022-07-26T20:06:31.884Z,40.57
2022-07-26T20:08:58.611Z,40.29
2022-07-26T20:11:25.657Z,40.29
2022-07-26T20:13:52.391Z,40.98
2022-07-26T20:16:19.070Z,40.42
2022-07-26T20:18:45.682Z,40.37
2022-07-26T20:21:12.268Z,40.92
2022-07-26T20:23:38.836Z,40.96
2022-07-26T20:26:05.341Z,40.58
2022-07-26T20:28:32.207Z,40.71
2022-07-26T20:30:58.955Z,41.15
2022-07-26T20:33:25.582Z,41.39
2022-07-26T20:35:55.014Z,41.60
2022-07-26T20:38:22.354Z,41.80
2022-07-26T20:40:49.002Z,41.82
2022-07-26T20:43:16.334Z,41.97
2022-07-26T20:45:43.195Z,41.81
2022-07-26T20:48:10.086Z,41.61
2022-07-26T20:50:36.679Z,41.23
2022-07-26T20:53:03.773Z,41.63
2022-07-26T20:55:30.350Z,41.77
2022-07-26T20:57:56.930Z,42.13
2022-07-26T21:00:24.774Z,43.06
2022-07-26T21:02:53.530Z,42.77
2022-07-26T21:05:20.203Z,43.01
2022-07-26T21:07:57.149Z,43.50
2022-07-26T21:10:27.184Z,42.77
2022-07-26T21:12:57.075Z,43.65
2022-07-26T21:15:23.650Z,42.62
2022-07-26T21:17:50.297Z,42.70
2022-07-26T21:20:17.104Z,43.18
2022-07-26T21:22:43.660Z,43.27
2022-07-26T21:25:10.241Z,42.23
2022-07-26T21:27:38.214Z,41.71
2022-07-26T21:30:06.090Z,42.23
2022-07-26T21:32:32.859Z,41.87
2022-07-26T21:34:59.532Z,41.81
2022-07-26T21:37:26.323Z,42.29
2022-07-26T21:39:53.108Z,42.17
2022-07-26T21:42:19.819Z,42.08
2022-07-26T21:44:46.516Z,42.57
2022-07-26T21:47:13.130Z,42.57
2022-07-26T21:49:39.865Z,43.14
2022-07-26T21:52:06.526Z,43.13
2022-07-26T21:54:33.254Z,43.21
2022-07-26T21:56:59.899Z,43.78
2022-07-26T21:59:26.535Z,44.24
2022-07-26T22:01:53.208Z,43.07
2022-07-26T22:04:19.931Z,43.25
2022-07-26T22:06:46.528Z,44.02
2022-07-26T22:09:13.714Z,44.41
2022-07-26T22:11:40.780Z,44.19
2022-07-26T22:14:08.498Z,45.19
2022-07-26T22:16:35.624Z,46.79
2022-07-26T22:19:02.578Z,46.39
2022-07-26T22:21:29.475Z,46.05
2022-07-26T22:23:56.369Z,45.56
2022-07-26T22:26:26.846Z,46.02
2022-07-26T22:28:53.728Z,44.88
2022-07-26T22:31:20.338Z,44.58
2022-07-26T22:33:47.004Z,44.20
2022-07-26T22:36:13.550Z,44.80
2022-07-26T22:38:40.170Z,44.58
2022-07-26T22:41:06.733Z,44.41
2022-07-26T22:43:33.448Z,44.65
2022-07-26T22:46:00.132Z,43.99
2022-07-26T22:48:26.777Z,44.47
2022-07-26T22:50:53.473Z,44.64
2022-07-26T22:53:19.948Z,44.68
2022-07-26T22:55:46.600Z,45.10
2022-07-26T22:58:13.348Z,45.67
2022-07-26T23:00:39.973Z,45.19
2022-07-26T23:03:07.803Z,45.34
2022-07-26T23:05:47.719Z,45.60
2022-07-26T23:08:44.310Z,45.29
2022-07-26T23:11:01.691Z,45.92
2022-07-26T23:13:28.306Z,45.72
2022-07-26T23:16:00.505Z,45.95
2022-07-26T23:18:27.764Z,46.03
2022-07-26T23:20:54.342Z,46.07
2022-07-26T23:23:21.130Z,46.25
2022-07-26T23:25:47.753Z,46.79
2022-07-26T23:28:35.914Z,46.45
2022-07-26T23:31:06.376Z,47.53
2022-07-26T23:33:51.730Z,47.14
2022-07-26T23:36:19.542Z,47.12
2022-07-26T23:38:46.074Z,46.86
2022-07-26T23:41:12.592Z,47.54
2022-07-26T23:43:39.140Z,47.65
2022-07-26T23:46:05.703Z,47.76
2022-07-26T23:48:32.325Z,47.45
2022-07-26T23:50:58.917Z,47.52
2022-07-26T23:53:26.808Z,47.30
2022-07-26T23:55:53.806Z,47.35
2022-07-26T23:58:20.427Z,47.97
